Hovedside
METAR-TAF:

METAR-TAF

Lufthavner :

Kristiansund lufthavn. Kvernberget

Kristiansund, Norge

breddegrad: 63-07N, lengdegrad: 007-50E, høyde over havet: 6 m

Gjeldene værobservasjon

Denne rapporten ble laget for 22 minutter siden, klokken 15:20 UTC
Vind 14 kt fra Vest-sørvest
Temperatur 11°C
Luftfuktighet 58%
Trykk 1025 hPa
Sikt 10 km eller mer
Brutte skyer i en høyde av 6800 ft

METAR: ENKB 201520Z 25014KT 9999 BKN068 11/03 Q1025 RMK WIND 745FT 25019KT

Tid: 17:42 (15:42 UTC)

Varsel

Denne rapporten ble laget for 1 time og 49 minutter siden, klokken 13:53 UTC
Varsel gyldig fra 20. klokken 13 UTC til 20. klokken 19 UTC
Vind 10 kt fra Sør-sørvest
Sikt 10 km eller mer
ingen skyer under 1500 m og ingen bygeskyer
Blir
fra 20. klokken 14 UTC til 20. klokken 16 UTC
Vind 15 kt fra Vest med vindkast opp mot 25 kt

TAF: ENKB 201353Z 2013/2019 20010KT CAVOK BECMG 2014/2016 26015G25KT

Værobservasjoner og værvarsel for over 4000 flyplasser (METAR- og TAF-rapporter).

Tilgjengelige stasjoner er representert av de røde og gule prikkene på kartet.

Hold musepekeren over prikken for å se navnet på stasjonen.

Klikk så for å se værobservasjoner og -varsler.

For å forandre kartet kan du klikke på den grønne knappen med svart kryss for å zoome inn, på den grønne knappen med strek for å zoome ut, eller på de grønne pilene for å se tilstøtende kart.


METAR-TAF: